TimeCDT,TemperatureF,Dew PointF,Humidity,Sea Level PressureIn,VisibilityMPH,Wind Direction,Wind SpeedMPH,Gust SpeedMPH,PrecipitationIn,Events,Conditions,WindDirDegrees,DateUTC
12:15 AM,67.1,59.0,75,29.89,10.0,SE,11.5,-,N/A,,Clear,140,2013-09-28 05:15:00
12:35 AM,66.7,59.0,76,29.89,10.0,SE,10.4,-,N/A,,Clear,140,2013-09-28 05:35:00
12:55 AM,66.4,59.0,77,29.88,10.0,SE,9.2,-,N/A,,Clear,130,2013-09-28 05:55:00
1:15 AM,65.5,58.5,78,29.88,10.0,SE,8.1,-,N/A,,Clear,140,2013-09-28 06:15:00
1:35 AM,65.3,58.3,78,29.87,10.0,SE,10.4,-,N/A,,Clear,140,2013-09-28 06:35:00
1:55 AM,65.3,58.3,78,29.87,10.0,SE,9.2,-,N/A,,Clear,140,2013-09-28 06:55:00
2:15 AM,64.9,58.3,79,29.87,10.0,SE,9.2,-,N/A,,Clear,140,2013-09-28 07:15:00
2:35 AM,64.8,58.3,79,29.86,10.0,SE,9.2,-,N/A,,Clear,140,2013-09-28 07:35:00
2:55 AM,65.1,58.5,79,29.85,10.0,SE,12.7,-,N/A,,Clear,140,2013-09-28 07:55:00
3:15 AM,65.3,58.6,79,29.85,10.0,SSE,12.7,17.3,N/A,,Clear,150,2013-09-28 08:15:00
3:35 AM,65.7,58.8,79,29.84,10.0,SSE,13.8,-,N/A,,Clear,150,2013-09-28 08:35:00
3:55 AM,65.3,59.0,80,29.84,10.0,SSE,13.8,18.4,N/A,,Clear,150,2013-09-28 08:55:00
4:15 AM,65.3,59.0,80,29.84,10.0,SSE,15.0,18.4,N/A,,Clear,150,2013-09-28 09:15:00
4:35 AM,65.3,59.0,80,29.84,10.0,SSE,13.8,20.7,N/A,,Clear,150,2013-09-28 09:35:00
4:55 AM,65.1,59.0,81,29.84,10.0,SSE,12.7,23.0,N/A,,Clear,150,2013-09-28 09:55:00
5:15 AM,64.6,59.2,83,29.82,10.0,SSE,13.8,20.7,N/A,,Clear,150,2013-09-28 10:15:00
5:35 AM,64.6,59.2,83,29.82,10.0,SSE,13.8,20.7,N/A,,Clear,150,2013-09-28 10:35:00
5:55 AM,64.8,59.5,83,29.82,10.0,SSE,16.1,-,N/A,,Scattered Clouds,150,2013-09-28 10:55:00
6:15 AM,65.7,59.9,82,29.82,10.0,SSE,18.4,23.0,N/A,,Overcast,150,2013-09-28 11:15:00
6:35 AM,65.7,59.9,82,29.82,10.0,SSE,15.0,24.2,N/A,,Overcast,150,2013-09-28 11:35:00
6:55 AM,65.8,59.9,81,29.81,10.0,SSE,16.1,-,N/A,,Overcast,150,2013-09-28 11:55:00
7:15 AM,65.7,59.9,82,29.80,10.0,SE,15.0,20.7,N/A,,Mostly Cloudy,140,2013-09-28 12:15:00
7:35 AM,66.2,60.1,81,29.80,10.0,SSE,16.1,-,N/A,,Mostly Cloudy,150,2013-09-28 12:35:00
7:55 AM,66.4,60.1,80,29.81,10.0,SSE,19.6,-,N/A,,Mostly Cloudy,160,2013-09-28 12:55:00
8:15 AM,66.9,60.4,80,29.81,10.0,SSE,18.4,24.2,N/A,Rain,Light Rain,160,2013-09-28 13:15:00
8:35 AM,65.3,61.7,88,29.80,10.0,SSE,15.0,23.0,0.01,,Overcast,160,2013-09-28 13:35:00
8:55 AM,65.5,62.1,89,29.80,10.0,SSE,15.0,24.2,0.01,,Overcast,160,2013-09-28 13:55:00
9:15 AM,65.7,62.2,89,29.79,10.0,SSE,18.4,24.2,N/A,,Overcast,160,2013-09-28 14:15:00
9:35 AM,66.2,62.4,88,29.79,10.0,SSE,15.0,23.0,N/A,,Overcast,160,2013-09-28 14:35:00
9:55 AM,67.1,62.8,86,29.79,10.0,South,17.3,21.9,N/A,,Mostly Cloudy,170,2013-09-28 14:55:00
10:15 AM,69.1,63.3,82,29.79,10.0,South,19.6,25.3,N/A,,Overcast,170,2013-09-28 15:15:00
10:35 AM,69.1,63.1,81,29.80,10.0,South,17.3,23.0,N/A,,Overcast,180,2013-09-28 15:35:00
10:55 AM,69.4,63.0,80,29.81,10.0,South,13.8,-,N/A,,Overcast,180,2013-09-28 15:55:00
11:15 AM,69.6,63.0,79,29.81,10.0,South,18.4,26.5,N/A,,Overcast,190,2013-09-28 16:15:00
11:35 AM,68.0,63.5,85,29.81,7.0,South,16.1,21.9,N/A,Rain,Light Rain,190,2013-09-28 16:35:00
11:55 AM,60.8,55.8,83,29.84,7.0,West,23.0,28.8,0.03,Rain,Rain,280,2013-09-28 16:55:00
12:15 PM,56.3,53.6,91,29.85,10.0,West,15.0,24.2,N/A,,Overcast,280,2013-09-28 17:15:00
12:35 PM,56.3,53.2,89,29.86,10.0,West,11.5,24.2,N/A,,Overcast,280,2013-09-28 17:35:00
12:55 PM,55.4,52.3,89,29.88,10.0,WNW,12.7,17.3,N/A,,Drizzle,290,2013-09-28 17:55:00
1:15 PM,55.0,52.3,91,29.89,4.0,West,13.8,-,0.01,Rain,Heavy Rain,280,2013-09-28 18:15:00
1:35 PM,54.9,52.7,92,29.89,4.0,WNW,12.7,19.6,0.01,,Drizzle,290,2013-09-28 18:35:00
1:55 PM,55.0,52.9,92,29.89,5.0,West,10.4,17.3,0.01,,Drizzle,280,2013-09-28 18:55:00
2:15 PM,55.6,53.4,92,29.89,10.0,WNW,12.7,-,0.01,Rain,Light Rain,290,2013-09-28 19:15:00
2:35 PM,56.3,53.2,89,29.89,10.0,WNW,9.2,16.1,0.01,,Overcast,300,2013-09-28 19:35:00
2:55 PM,56.7,53.4,89,29.90,10.0,WNW,13.8,-,0.01,Rain,Light Rain,290,2013-09-28 19:55:00
3:15 PM,57.7,53.2,85,29.91,10.0,WNW,12.7,23.0,N/A,,Overcast,290,2013-09-28 20:15:00
3:35 PM,57.9,52.7,83,29.92,10.0,West,10.4,-,N/A,,Overcast,280,2013-09-28 20:35:00
3:55 PM,59.2,52.5,79,29.92,10.0,WNW,10.4,20.7,N/A,,Overcast,290,2013-09-28 20:55:00
4:15 PM,59.9,51.8,75,29.93,10.0,WNW,13.8,-,N/A,,Overcast,290,2013-09-28 21:15:00
4:35 PM,60.3,51.8,74,29.94,10.0,West,13.8,19.6,N/A,,Overcast,270,2013-09-28 21:35:00
4:55 PM,60.6,50.9,70,29.94,10.0,WNW,12.7,20.7,N/A,,Overcast,290,2013-09-28 21:55:00
5:15 PM,61.3,49.3,65,29.95,10.0,West,12.7,-,N/A,,Overcast,280,2013-09-28 22:15:00
5:35 PM,61.5,50.2,66,29.96,10.0,West,11.5,-,N/A,,Overcast,280,2013-09-28 22:35:00
5:55 PM,60.1,47.8,64,29.96,10.0,West,11.5,17.3,N/A,,Mostly Cloudy,280,2013-09-28 22:55:00
6:15 PM,60.3,47.8,64,29.96,10.0,West,9.2,-,N/A,,Scattered Clouds,280,2013-09-28 23:15:00
6:35 PM,59.0,48.0,67,29.97,10.0,West,8.1,-,N/A,,Clear,270,2013-09-28 23:35:00
6:55 PM,56.7,47.8,72,29.97,10.0,West,4.6,-,N/A,,Clear,270,2013-09-28 23:55:00
7:15 PM,54.5,48.2,79,29.97,10.0,WSW,3.5,-,N/A,,Clear,240,2013-09-29 00:15:00
7:35 PM,51.6,47.3,85,29.98,10.0,WSW,4.6,-,N/A,,Clear,250,2013-09-29 00:35:00
7:55 PM,50.2,46.6,87,29.99,10.0,SW,4.6,-,N/A,,Clear,230,2013-09-29 00:55:00
8:15 PM,49.3,46.2,89,29.99,10.0,SW,5.8,-,N/A,,Clear,230,2013-09-29 01:15:00
8:35 PM,50.0,46.4,87,30.01,10.0,SW,5.8,-,N/A,,Clear,230,2013-09-29 01:35:00
8:55 PM,49.6,46.4,89,30.01,10.0,WSW,5.8,-,N/A,,Clear,240,2013-09-29 01:55:00
9:15 PM,49.3,46.0,89,30.02,10.0,WSW,5.8,-,N/A,,Clear,250,2013-09-29 02:15:00
9:35 PM,49.6,45.9,87,30.02,10.0,WSW,6.9,-,N/A,,Clear,250,2013-09-29 02:35:00
9:55 PM,49.8,45.5,85,30.03,10.0,WSW,5.8,-,N/A,,Clear,250,2013-09-29 02:55:00
10:15 PM,49.1,45.3,87,30.03,10.0,WSW,5.8,-,N/A,,Clear,250,2013-09-29 03:15:00
10:35 PM,48.6,44.6,86,30.03,10.0,WSW,5.8,-,N/A,,Clear,250,2013-09-29 03:35:00
10:55 PM,48.2,44.2,86,30.03,10.0,WSW,5.8,-,N/A,,Clear,250,2013-09-29 03:55:00
11:15 PM,47.5,43.9,87,30.04,10.0,WSW,5.8,-,N/A,,Clear,240,2013-09-29 04:15:00
11:35 PM,47.3,43.7,87,30.04,10.0,WSW,5.8,-,N/A,,Clear,240,2013-09-29 04:35:00
11:55 PM,46.9,43.7,88,30.04,10.0,WSW,5.8,-,N/A,,Clear,240,2013-09-29 04:55:00